Andalusia, PA

8:50 PM EDT on September 30, 2014 (GMT -0400)
Croydon | Change Station
CLOSE
Current Station
Personal Weather Station
Location: Croydon, PA
Elevation: 36 ft
Nearby Weather Stations

Elev 36 ft 40.09 °N, 74.90 °W | Updated 10 seconds ago

Clear
Clear
65.5 °F
Feels Like 65.5 °F
N
0.0
Wind Variable Wind from North
Gusts 0.0 mph

Today
High -- | Low -- °F
--% Chance of Precip.
Yesterday
High -- | Low -- °F
Precip. -- in
6:55 AM 6:43 PM
Waxing Crescent, 41% visible
Pressure 29.96 in
Visibility 10.0 miles
Clouds Clear
Dew Point 58 °F
Humidity 76%
Rainfall 0.00 in
Snow Depth Not available.
UV 0.0 out of 12
Pollen 1.90 out of 12
Air Quality Not available.
Flu Activity Not available.
METAR KPNE 302354Z 09009KT 10SM CLR 19/14 A2996 RMK AO2 SLP143 T01940139 10261 20194 53016

More Conditions Fewer Conditions

Pressure 29.96 in
Visibility 10.0 miles
Clouds Clear
Dew Point 58 °F
Humidity 76%
Rainfall 0.00 in
Snow Depth Not available.
UV 0.0 out of 12
Pollen 1.90 out of 12
Air Quality Not available.
Flu Activity Not available.
METAR KPNE 302354Z 09009KT 10SM CLR 19/14 A2996 RMK AO2 SLP143 T01940139 10261 20194 53016

More Conditions Fewer Conditions

10-Day Weather Forecast

Almanac

Astronomy

Sep. 30, 2014 Rise Set
Actual Time 6:55 AM EDT 6:43 PM EDT
Civil Twilight 6:27 AM EDT 7:10 PM EDT
Nautical Twilight 5:56 AM EDT 7:42 PM EDT
Astronomical Twilight 5:24 AM EDT 8:13 PM EDT
Moon 1:01 PM EDT (9/30) 11:11 PM EDT (9/30)
Length of Visible Light 12h 42m
Length of Day
11h 48m
Tomorrow will be 2m 37s shorter.
Waxing Crescent, 41% of the Moon is Illuminated
Today
Waxing Crescent
Oct 1
First Quarter
Oct 8
Full
Oct 15
Last Quarter
Oct 23
New

Today's Extremes

State Highs State Lows

Community

WunderPhotos

Upload Photos

1,757,801 photos uploaded!

Nearby

Snow Depth

Station Depth Elevation
No new snow has been reported.

Earthquake Activity

City Distance Mag. Time & Date
No recent earthquake activity has been reported nearby.
Minimum magnitude displayed is 2.5.

Coastal Water Temperatures

Place Temperature
No Stations Reporting

Nearby Weather Stations